sensor_id;sensor_type;location;lat;lon;timestamp;temperature;humidity
18575;DHT22;9417;16.484;102.872;2023-05-02T00:00:02;27.60;91.80
18575;DHT22;9417;16.484;102.872;2023-05-02T00:02:09;27.70;90.80
18575;DHT22;9417;16.484;102.872;2023-05-02T00:04:16;27.70;89.90
18575;DHT22;9417;16.484;102.872;2023-05-02T00:06:25;27.70;89.20
18575;DHT22;9417;16.484;102.872;2023-05-02T00:08:32;27.80;88.40
18575;DHT22;9417;16.484;102.872;2023-05-02T00:10:40;27.80;87.90
18575;DHT22;9417;16.484;102.872;2023-05-02T00:12:47;27.90;87.40
18575;DHT22;9417;16.484;102.872;2023-05-02T00:15:01;27.90;87.10
18575;DHT22;9417;16.484;102.872;2023-05-02T00:17:15;28.00;86.60
18575;DHT22;9417;16.484;102.872;2023-05-02T00:19:23;28.10;85.90
18575;DHT22;9417;16.484;102.872;2023-05-02T00:21:31;28.10;85.60
18575;DHT22;9417;16.484;102.872;2023-05-02T00:23:39;28.20;85.00
18575;DHT22;9417;16.484;102.872;2023-05-02T00:26:02;28.30;84.50
18575;DHT22;9417;16.484;102.872;2023-05-02T00:28:10;28.30;84.40
18575;DHT22;9417;16.484;102.872;2023-05-02T00:30:18;28.40;84.20
18575;DHT22;9417;16.484;102.872;2023-05-02T00:32:25;28.40;83.60
18575;DHT22;9417;16.484;102.872;2023-05-02T00:34:33;28.50;83.00
18575;DHT22;9417;16.484;102.872;2023-05-02T00:36:42;28.50;82.60
18575;DHT22;9417;16.484;102.872;2023-05-02T00:38:49;28.50;81.90
18575;DHT22;9417;16.484;102.872;2023-05-02T00:40:56;28.60;82.10
18575;DHT22;9417;16.484;102.872;2023-05-02T00:43:03;28.60;81.70
18575;DHT22;9417;16.484;102.872;2023-05-02T00:45:10;28.70;81.50
18575;DHT22;9417;16.484;102.872;2023-05-02T00:47:18;28.70;80.60
18575;DHT22;9417;16.484;102.872;2023-05-02T00:49:25;28.80;80.10
18575;DHT22;9417;16.484;102.872;2023-05-02T00:51:33;28.80;79.70
18575;DHT22;9417;16.484;102.872;2023-05-02T00:53:42;28.90;79.50
18575;DHT22;9417;16.484;102.872;2023-05-02T00:55:49;29.00;79.00
18575;DHT22;9417;16.484;102.872;2023-05-02T00:57:58;29.00;78.40
18575;DHT22;9417;16.484;102.872;2023-05-02T01:00:07;29.10;78.10
18575;DHT22;9417;16.484;102.872;2023-05-02T01:02:27;29.20;77.90
18575;DHT22;9417;16.484;102.872;2023-05-02T01:04:42;29.20;78.00
18575;DHT22;9417;16.484;102.872;2023-05-02T01:07:03;29.30;77.60
18575;DHT22;9417;16.484;102.872;2023-05-02T01:09:21;29.40;77.40
18575;DHT22;9417;16.484;102.872;2023-05-02T01:11:37;29.40;76.90
18575;DHT22;9417;16.484;102.872;2023-05-02T01:13:46;29.50;76.20
18575;DHT22;9417;16.484;102.872;2023-05-02T01:15:56;29.60;75.90
18575;DHT22;9417;16.484;102.872;2023-05-02T01:18:05;29.60;75.90
18575;DHT22;9417;16.484;102.872;2023-05-02T01:20:17;29.70;76.00
18575;DHT22;9417;16.484;102.872;2023-05-02T01:22:28;29.80;75.50
18575;DHT22;9417;16.484;102.872;2023-05-02T01:24:43;29.80;75.20
18575;DHT22;9417;16.484;102.872;2023-05-02T01:27:04;29.90;74.80
18575;DHT22;9417;16.484;102.872;2023-05-02T01:29:15;29.90;74.10
18575;DHT22;9417;16.484;102.872;2023-05-02T01:31:24;30.00;74.20
18575;DHT22;9417;16.484;102.872;2023-05-02T01:33:35;30.10;73.90
18575;DHT22;9417;16.484;102.872;2023-05-02T01:35:42;30.10;73.50
18575;DHT22;9417;16.484;102.872;2023-05-02T01:37:51;30.20;73.00
18575;DHT22;9417;16.484;102.872;2023-05-02T01:39:58;30.20;73.10
18575;DHT22;9417;16.484;102.872;2023-05-02T01:42:07;30.30;73.40
18575;DHT22;9417;16.484;102.872;2023-05-02T01:44:19;30.40;73.00
18575;DHT22;9417;16.484;102.872;2023-05-02T01:46:28;30.50;72.30
18575;DHT22;9417;16.484;102.872;2023-05-02T01:48:37;30.50;72.00
18575;DHT22;9417;16.484;102.872;2023-05-02T01:50:45;30.60;71.70
18575;DHT22;9417;16.484;102.872;2023-05-02T01:52:55;30.70;71.30
18575;DHT22;9417;16.484;102.872;2023-05-02T01:55:06;30.70;71.20
18575;DHT22;9417;16.484;102.872;2023-05-02T01:57:15;30.80;70.70
18575;DHT22;9417;16.484;102.872;2023-05-02T01:59:26;30.80;70.50
18575;DHT22;9417;16.484;102.872;2023-05-02T02:01:34;30.90;70.30
18575;DHT22;9417;16.484;102.872;2023-05-02T02:03:42;30.90;69.10
18575;DHT22;9417;16.484;102.872;2023-05-02T02:05:52;31.00;69.70
18575;DHT22;9417;16.484;102.872;2023-05-02T02:08:00;31.00;69.40
18575;DHT22;9417;16.484;102.872;2023-05-02T02:10:08;31.10;69.30
18575;DHT22;9417;16.484;102.872;2023-05-02T02:12:25;31.20;69.30
18575;DHT22;9417;16.484;102.872;2023-05-02T02:14:37;31.30;69.30
18575;DHT22;9417;16.484;102.872;2023-05-02T02:16:44;31.30;69.30
18575;DHT22;9417;16.484;102.872;2023-05-02T02:18:54;31.40;69.40
18575;DHT22;9417;16.484;102.872;2023-05-02T02:21:02;31.50;69.30
18575;DHT22;9417;16.484;102.872;2023-05-02T02:23:13;31.50;69.40
18575;DHT22;9417;16.484;102.872;2023-05-02T02:25:22;31.60;68.80
18575;DHT22;9417;16.484;102.872;2023-05-02T02:27:30;31.70;68.50
18575;DHT22;9417;16.484;102.872;2023-05-02T02:29:39;31.80;67.80
18575;DHT22;9417;16.484;102.872;2023-05-02T02:31:47;31.80;68.00
18575;DHT22;9417;16.484;102.872;2023-05-02T02:33:54;31.90;67.60
18575;DHT22;9417;16.484;102.872;2023-05-02T02:36:07;32.00;68.20
18575;DHT22;9417;16.484;102.872;2023-05-02T02:38:24;32.10;68.30
18575;DHT22;9417;16.484;102.872;2023-05-02T02:40:40;32.20;67.80
18575;DHT22;9417;16.484;102.872;2023-05-02T02:42:59;32.20;67.80
18575;DHT22;9417;16.484;102.872;2023-05-02T02:45:20;32.30;66.10
18575;DHT22;9417;16.484;102.872;2023-05-02T02:47:49;32.40;66.30
18575;DHT22;9417;16.484;102.872;2023-05-02T02:50:08;32.50;66.30
18575;DHT22;9417;16.484;102.872;2023-05-02T02:52:23;32.50;66.10
18575;DHT22;9417;16.484;102.872;2023-05-02T02:54:37;32.60;66.20
18575;DHT22;9417;16.484;102.872;2023-05-02T02:56:48;32.70;66.00
18575;DHT22;9417;16.484;102.872;2023-05-02T02:59:02;32.80;65.80
18575;DHT22;9417;16.484;102.872;2023-05-02T03:01:31;32.80;64.70
18575;DHT22;9417;16.484;102.872;2023-05-02T03:03:40;32.90;63.90
18575;DHT22;9417;16.484;102.872;2023-05-02T03:05:48;33.00;63.60
18575;DHT22;9417;16.484;102.872;2023-05-02T03:07:59;33.10;63.30
18575;DHT22;9417;16.484;102.872;2023-05-02T03:10:07;33.10;61.70
18575;DHT22;9417;16.484;102.872;2023-05-02T03:12:17;33.10;62.20
18575;DHT22;9417;16.484;102.872;2023-05-02T03:14:26;33.20;62.70
18575;DHT22;9417;16.484;102.872;2023-05-02T03:16:36;33.30;62.30
18575;DHT22;9417;16.484;102.872;2023-05-02T03:18:48;33.40;61.30
18575;DHT22;9417;16.484;102.872;2023-05-02T03:21:01;33.40;60.80
18575;DHT22;9417;16.484;102.872;2023-05-02T03:23:08;33.50;61.00
18575;DHT22;9417;16.484;102.872;2023-05-02T03:25:16;33.60;61.40
18575;DHT22;9417;16.484;102.872;2023-05-02T03:27:26;33.70;60.60
18575;DHT22;9417;16.484;102.872;2023-05-02T03:29:37;33.70;60.20
18575;DHT22;9417;16.484;102.872;2023-05-02T03:31:48;33.80;60.30
18575;DHT22;9417;16.484;102.872;2023-05-02T03:33:57;33.90;59.50
18575;DHT22;9417;16.484;102.872;2023-05-02T03:36:05;33.90;59.20
18575;DHT22;9417;16.484;102.872;2023-05-02T03:38:14;34.00;59.30
18575;DHT22;9417;16.484;102.872;2023-05-02T03:40:24;34.00;58.50
18575;DHT22;9417;16.484;102.872;2023-05-02T03:42:33;34.10;58.40
18575;DHT22;9417;16.484;102.872;2023-05-02T03:44:55;34.10;58.50
18575;DHT22;9417;16.484;102.872;2023-05-02T03:47:05;34.20;58.40
18575;DHT22;9417;16.484;102.872;2023-05-02T03:49:16;34.20;58.30
18575;DHT22;9417;16.484;102.872;2023-05-02T03:51:27;34.30;58.50
18575;DHT22;9417;16.484;102.872;2023-05-02T03:53:34;34.30;58.00
18575;DHT22;9417;16.484;102.872;2023-05-02T03:55:42;34.20;57.70
18575;DHT22;9417;16.484;102.872;2023-05-02T03:57:58;34.20;57.80
18575;DHT22;9417;16.484;102.872;2023-05-02T04:00:06;34.20;58.10
18575;DHT22;9417;16.484;102.872;2023-05-02T04:02:15;34.30;58.90
18575;DHT22;9417;16.484;102.872;2023-05-02T04:04:24;34.30;58.60
18575;DHT22;9417;16.484;102.872;2023-05-02T04:06:32;34.40;57.00
18575;DHT22;9417;16.484;102.872;2023-05-02T04:08:41;34.40;59.10
18575;DHT22;9417;16.484;102.872;2023-05-02T04:10:51;34.40;58.80
18575;DHT22;9417;16.484;102.872;2023-05-02T04:12:58;34.50;58.20
18575;DHT22;9417;16.484;102.872;2023-05-02T04:15:09;34.50;57.70
18575;DHT22;9417;16.484;102.872;2023-05-02T04:17:19;34.50;57.00
18575;DHT22;9417;16.484;102.872;2023-05-02T04:19:26;34.60;57.30
18575;DHT22;9417;16.484;102.872;2023-05-02T04:21:36;34.60;56.90
18575;DHT22;9417;16.484;102.872;2023-05-02T04:23:44;34.70;56.90
18575;DHT22;9417;16.484;102.872;2023-05-02T04:25:51;34.70;57.10
18575;DHT22;9417;16.484;102.872;2023-05-02T04:28:22;34.80;57.70
18575;DHT22;9417;16.484;102.872;2023-05-02T04:30:30;34.80;56.60
18575;DHT22;9417;16.484;102.872;2023-05-02T04:32:45;34.90;56.90
18575;DHT22;9417;16.484;102.872;2023-05-02T04:34:53;35.00;56.80
18575;DHT22;9417;16.484;102.872;2023-05-02T04:37:01;35.00;55.50
18575;DHT22;9417;16.484;102.872;2023-05-02T04:39:09;35.10;55.60
18575;DHT22;9417;16.484;102.872;2023-05-02T04:41:22;35.20;54.90
18575;DHT22;9417;16.484;102.872;2023-05-02T04:43:35;35.20;54.70
18575;DHT22;9417;16.484;102.872;2023-05-02T04:45:42;35.30;54.30
18575;DHT22;9417;16.484;102.872;2023-05-02T04:47:59;35.40;54.30
18575;DHT22;9417;16.484;102.872;2023-05-02T04:50:09;35.50;54.20
18575;DHT22;9417;16.484;102.872;2023-05-02T04:52:17;35.50;54.30
18575;DHT22;9417;16.484;102.872;2023-05-02T04:54:24;35.50;53.90
18575;DHT22;9417;16.484;102.872;2023-05-02T04:56:32;35.50;54.10
18575;DHT22;9417;16.484;102.872;2023-05-02T04:58:42;35.50;53.80
18575;DHT22;9417;16.484;102.872;2023-05-02T05:00:50;35.60;53.40
18575;DHT22;9417;16.484;102.872;2023-05-02T05:02:58;35.60;54.70
18575;DHT22;9417;16.484;102.872;2023-05-02T05:05:06;35.60;53.80
18575;DHT22;9417;16.484;102.872;2023-05-02T05:07:13;35.70;54.00
18575;DHT22;9417;16.484;102.872;2023-05-02T05:09:25;35.70;53.00
18575;DHT22;9417;16.484;102.872;2023-05-02T05:11:32;35.80;52.80
18575;DHT22;9417;16.484;102.872;2023-05-02T05:13:39;35.90;51.70
18575;DHT22;9417;16.484;102.872;2023-05-02T05:15:48;35.90;51.70
18575;DHT22;9417;16.484;102.872;2023-05-02T05:18:02;35.90;50.60
18575;DHT22;9417;16.484;102.872;2023-05-02T05:20:15;36.00;49.60
18575;DHT22;9417;16.484;102.872;2023-05-02T05:22:25;36.00;50.60
18575;DHT22;9417;16.484;102.872;2023-05-02T05:24:33;36.10;50.70
18575;DHT22;9417;16.484;102.872;2023-05-02T05:26:40;36.20;50.30
18575;DHT22;9417;16.484;102.872;2023-05-02T05:28:48;36.20;47.80
18575;DHT22;9417;16.484;102.872;2023-05-02T05:31:05;36.20;49.50
18575;DHT22;9417;16.484;102.872;2023-05-02T05:33:14;36.20;50.10
18575;DHT22;9417;16.484;102.872;2023-05-02T05:35:23;36.20;49.60
18575;DHT22;9417;16.484;102.872;2023-05-02T05:37:32;36.20;48.80
18575;DHT22;9417;16.484;102.872;2023-05-02T05:39:52;36.20;49.70
18575;DHT22;9417;16.484;102.872;2023-05-02T05:41:59;36.30;50.60
18575;DHT22;9417;16.484;102.872;2023-05-02T05:44:07;36.30;50.70
18575;DHT22;9417;16.484;102.872;2023-05-02T05:46:14;36.40;49.70
18575;DHT22;9417;16.484;102.872;2023-05-02T05:48:25;36.40;49.60
18575;DHT22;9417;16.484;102.872;2023-05-02T05:50:34;36.50;49.30
18575;DHT22;9417;16.484;102.872;2023-05-02T05:52:41;36.50;48.40
18575;DHT22;9417;16.484;102.872;2023-05-02T05:54:48;36.50;48.70
18575;DHT22;9417;16.484;102.872;2023-05-02T05:57:01;36.60;48.80
18575;DHT22;9417;16.484;102.872;2023-05-02T05:59:09;36.60;48.60
18575;DHT22;9417;16.484;102.872;2023-05-02T06:01:16;36.60;48.20
18575;DHT22;9417;16.484;102.872;2023-05-02T06:03:26;36.70;48.30
18575;DHT22;9417;16.484;102.872;2023-05-02T06:05:33;36.80;47.80
18575;DHT22;9417;16.484;102.872;2023-05-02T06:07:40;36.90;47.70
18575;DHT22;9417;16.484;102.872;2023-05-02T06:09:48;36.90;47.30
18575;DHT22;9417;16.484;102.872;2023-05-02T06:11:55;36.90;46.10
18575;DHT22;9417;16.484;102.872;2023-05-02T06:14:03;36.80;47.20
18575;DHT22;9417;16.484;102.872;2023-05-02T06:16:11;36.80;48.00
18575;DHT22;9417;16.484;102.872;2023-05-02T06:18:20;36.80;47.00
18575;DHT22;9417;16.484;102.872;2023-05-02T06:20:29;36.90;46.20
18575;DHT22;9417;16.484;102.872;2023-05-02T06:22:36;37.00;45.50
18575;DHT22;9417;16.484;102.872;2023-05-02T06:24:44;37.10;44.70
18575;DHT22;9417;16.484;102.872;2023-05-02T06:26:52;37.10;44.50
18575;DHT22;9417;16.484;102.872;2023-05-02T06:28:59;37.10;43.60
18575;DHT22;9417;16.484;102.872;2023-05-02T06:31:07;37.10;43.90
18575;DHT22;9417;16.484;102.872;2023-05-02T06:33:14;37.10;43.80
18575;DHT22;9417;16.484;102.872;2023-05-02T06:35:22;37.20;44.00
18575;DHT22;9417;16.484;102.872;2023-05-02T06:37:35;37.30;43.80
18575;DHT22;9417;16.484;102.872;2023-05-02T06:39:42;37.30;43.20
18575;DHT22;9417;16.484;102.872;2023-05-02T06:41:49;37.40;43.50
18575;DHT22;9417;16.484;102.872;2023-05-02T06:43:57;37.50;43.90
18575;DHT22;9417;16.484;102.872;2023-05-02T06:46:04;37.50;44.30
18575;DHT22;9417;16.484;102.872;2023-05-02T06:48:11;37.50;44.50
18575;DHT22;9417;16.484;102.872;2023-05-02T06:50:20;37.50;43.70
18575;DHT22;9417;16.484;102.872;2023-05-02T06:52:27;37.60;44.00
18575;DHT22;9417;16.484;102.872;2023-05-02T06:54:36;37.50;43.50
18575;DHT22;9417;16.484;102.872;2023-05-02T06:56:44;37.50;44.20
18575;DHT22;9417;16.484;102.872;2023-05-02T06:58:51;37.50;43.90
18575;DHT22;9417;16.484;102.872;2023-05-02T07:00:59;37.50;43.70
18575;DHT22;9417;16.484;102.872;2023-05-02T07:03:06;37.60;43.30
18575;DHT22;9417;16.484;102.872;2023-05-02T07:05:15;37.60;42.80
18575;DHT22;9417;16.484;102.872;2023-05-02T07:07:23;37.60;41.40
18575;DHT22;9417;16.484;102.872;2023-05-02T07:09:30;37.60;42.60
18575;DHT22;9417;16.484;102.872;2023-05-02T07:11:39;37.60;43.20
18575;DHT22;9417;16.484;102.872;2023-05-02T07:13:46;37.70;43.60
18575;DHT22;9417;16.484;102.872;2023-05-02T07:16:07;37.60;43.40
18575;DHT22;9417;16.484;102.872;2023-05-02T07:18:14;37.70;43.90
18575;DHT22;9417;16.484;102.872;2023-05-02T07:20:22;37.60;43.80
18575;DHT22;9417;16.484;102.872;2023-05-02T07:22:32;37.70;43.70
18575;DHT22;9417;16.484;102.872;2023-05-02T07:24:40;37.60;43.50
18575;DHT22;9417;16.484;102.872;2023-05-02T07:26:49;37.40;44.80
18575;DHT22;9417;16.484;102.872;2023-05-02T07:28:57;37.30;45.30
18575;DHT22;9417;16.484;102.872;2023-05-02T07:31:04;37.30;45.20
18575;DHT22;9417;16.484;102.872;2023-05-02T07:33:13;37.20;44.60
18575;DHT22;9417;16.484;102.872;2023-05-02T07:35:20;37.20;45.20
18575;DHT22;9417;16.484;102.872;2023-05-02T07:37:32;37.30;45.00
18575;DHT22;9417;16.484;102.872;2023-05-02T07:39:40;37.30;44.50
18575;DHT22;9417;16.484;102.872;2023-05-02T07:41:51;37.30;45.20
18575;DHT22;9417;16.484;102.872;2023-05-02T07:43:57;37.40;45.60
18575;DHT22;9417;16.484;102.872;2023-05-02T07:46:05;37.50;44.60
18575;DHT22;9417;16.484;102.872;2023-05-02T07:48:12;37.50;45.20
18575;DHT22;9417;16.484;102.872;2023-05-02T07:50:20;37.60;44.80
18575;DHT22;9417;16.484;102.872;2023-05-02T07:52:33;37.50;44.80
18575;DHT22;9417;16.484;102.872;2023-05-02T07:54:40;37.50;45.30
18575;DHT22;9417;16.484;102.872;2023-05-02T07:56:47;37.40;45.90
18575;DHT22;9417;16.484;102.872;2023-05-02T07:58:56;37.40;46.30
18575;DHT22;9417;16.484;102.872;2023-05-02T08:01:04;37.40;45.90
18575;DHT22;9417;16.484;102.872;2023-05-02T08:03:12;37.40;45.90
18575;DHT22;9417;16.484;102.872;2023-05-02T08:05:19;37.40;46.30
18575;DHT22;9417;16.484;102.872;2023-05-02T08:07:26;37.50;46.30
18575;DHT22;9417;16.484;102.872;2023-05-02T08:09:33;37.50;46.00
18575;DHT22;9417;16.484;102.872;2023-05-02T08:11:40;37.50;46.00
18575;DHT22;9417;16.484;102.872;2023-05-02T08:13:48;37.40;45.90
18575;DHT22;9417;16.484;102.872;2023-05-02T08:15:57;37.30;45.40
18575;DHT22;9417;16.484;102.872;2023-05-02T08:18:04;37.30;45.60
18575;DHT22;9417;16.484;102.872;2023-05-02T08:20:11;37.10;45.70
18575;DHT22;9417;16.484;102.872;2023-05-02T08:22:19;37.00;45.70
18575;DHT22;9417;16.484;102.872;2023-05-02T08:24:26;37.00;45.90
18575;DHT22;9417;16.484;102.872;2023-05-02T08:26:35;37.00;45.90
18575;DHT22;9417;16.484;102.872;2023-05-02T08:28:42;37.10;45.90
18575;DHT22;9417;16.484;102.872;2023-05-02T08:30:52;37.10;46.20
18575;DHT22;9417;16.484;102.872;2023-05-02T08:33:01;37.20;46.20
18575;DHT22;9417;16.484;102.872;2023-05-02T08:35:09;37.20;46.00
18575;DHT22;9417;16.484;102.872;2023-05-02T08:37:15;37.20;46.00
18575;DHT22;9417;16.484;102.872;2023-05-02T08:39:22;37.20;46.20
18575;DHT22;9417;16.484;102.872;2023-05-02T08:41:30;37.10;46.30
18575;DHT22;9417;16.484;102.872;2023-05-02T08:43:38;37.00;46.60
18575;DHT22;9417;16.484;102.872;2023-05-02T08:45:46;36.90;46.80
18575;DHT22;9417;16.484;102.872;2023-05-02T08:47:56;36.80;46.90
18575;DHT22;9417;16.484;102.872;2023-05-02T08:50:06;36.90;47.20
18575;DHT22;9417;16.484;102.872;2023-05-02T08:52:15;36.90;47.00
18575;DHT22;9417;16.484;102.872;2023-05-02T08:54:25;37.00;46.90
18575;DHT22;9417;16.484;102.872;2023-05-02T08:56:32;36.90;46.90
18575;DHT22;9417;16.484;102.872;2023-05-02T08:58:40;37.00;46.60
18575;DHT22;9417;16.484;102.872;2023-05-02T09:00:48;37.00;46.70
18575;DHT22;9417;16.484;102.872;2023-05-02T09:03:05;37.10;46.40
18575;DHT22;9417;16.484;102.872;2023-05-02T09:05:18;37.00;46.20
18575;DHT22;9417;16.484;102.872;2023-05-02T09:07:25;37.00;46.40
18575;DHT22;9417;16.484;102.872;2023-05-02T09:09:33;36.90;46.50
18575;DHT22;9417;16.484;102.872;2023-05-02T09:11:41;36.80;46.80
18575;DHT22;9417;16.484;102.872;2023-05-02T09:13:52;36.80;47.30
18575;DHT22;9417;16.484;102.872;2023-05-02T09:16:00;36.70;47.40
18575;DHT22;9417;16.484;102.872;2023-05-02T09:18:08;36.70;46.90
18575;DHT22;9417;16.484;102.872;2023-05-02T09:20:16;36.60;46.80
18575;DHT22;9417;16.484;102.872;2023-05-02T09:22:23;36.60;46.80
18575;DHT22;9417;16.484;102.872;2023-05-02T09:24:31;36.50;47.20
18575;DHT22;9417;16.484;102.872;2023-05-02T09:26:39;36.30;47.20
18575;DHT22;9417;16.484;102.872;2023-05-02T09:28:54;36.20;47.40
18575;DHT22;9417;16.484;102.872;2023-05-02T09:31:07;36.10;47.80
18575;DHT22;9417;16.484;102.872;2023-05-02T09:33:26;36.00;47.90
18575;DHT22;9417;16.484;102.872;2023-05-02T09:35:35;35.90;48.30
18575;DHT22;9417;16.484;102.872;2023-05-02T09:37:42;35.80;48.60
18575;DHT22;9417;16.484;102.872;2023-05-02T09:40:05;35.70;49.00
18575;DHT22;9417;16.484;102.872;2023-05-02T09:42:13;35.60;49.90
18575;DHT22;9417;16.484;102.872;2023-05-02T09:44:37;35.50;49.90
18575;DHT22;9417;16.484;102.872;2023-05-02T09:46:45;35.50;49.50
18575;DHT22;9417;16.484;102.872;2023-05-02T09:48:53;35.50;49.50
18575;DHT22;9417;16.484;102.872;2023-05-02T09:51:02;35.40;49.50
18575;DHT22;9417;16.484;102.872;2023-05-02T09:53:11;35.40;49.90
18575;DHT22;9417;16.484;102.872;2023-05-02T09:55:21;35.30;49.90
18575;DHT22;9417;16.484;102.872;2023-05-02T09:57:39;35.30;49.80
18575;DHT22;9417;16.484;102.872;2023-05-02T09:59:54;35.30;49.70
18575;DHT22;9417;16.484;102.872;2023-05-02T10:02:02;35.30;50.00
18575;DHT22;9417;16.484;102.872;2023-05-02T10:04:14;35.30;50.10
18575;DHT22;9417;16.484;102.872;2023-05-02T10:06:24;35.30;50.60
18575;DHT22;9417;16.484;102.872;2023-05-02T10:08:33;35.30;51.00
18575;DHT22;9417;16.484;102.872;2023-05-02T10:10:41;35.20;51.40
18575;DHT22;9417;16.484;102.872;2023-05-02T10:12:53;35.20;51.30
18575;DHT22;9417;16.484;102.872;2023-05-02T10:15:03;35.10;51.30
18575;DHT22;9417;16.484;102.872;2023-05-02T10:17:13;35.10;51.20
18575;DHT22;9417;16.484;102.872;2023-05-02T10:19:26;35.10;51.10
18575;DHT22;9417;16.484;102.872;2023-05-02T10:21:37;35.00;51.30
18575;DHT22;9417;16.484;102.872;2023-05-02T10:23:46;35.00;51.50
18575;DHT22;9417;16.484;102.872;2023-05-02T10:25:54;34.90;51.60
18575;DHT22;9417;16.484;102.872;2023-05-02T10:28:03;34.90;51.70
18575;DHT22;9417;16.484;102.872;2023-05-02T10:30:12;34.90;52.10
18575;DHT22;9417;16.484;102.872;2023-05-02T10:32:21;34.80;52.40
18575;DHT22;9417;16.484;102.872;2023-05-02T10:34:35;34.80;52.70
18575;DHT22;9417;16.484;102.872;2023-05-02T10:36:44;34.70;52.90
18575;DHT22;9417;16.484;102.872;2023-05-02T10:38:51;34.70;53.10
18575;DHT22;9417;16.484;102.872;2023-05-02T10:41:01;34.60;53.20
18575;DHT22;9417;16.484;102.872;2023-05-02T10:43:14;34.60;53.70
18575;DHT22;9417;16.484;102.872;2023-05-02T10:45:31;34.60;53.70
18575;DHT22;9417;16.484;102.872;2023-05-02T10:47:39;34.50;53.50
18575;DHT22;9417;16.484;102.872;2023-05-02T10:49:53;34.50;53.80
18575;DHT22;9417;16.484;102.872;2023-05-02T10:52:25;34.40;55.40
18575;DHT22;9417;16.484;102.872;2023-05-02T10:54:34;34.40;57.20
18575;DHT22;9417;16.484;102.872;2023-05-02T10:57:02;34.20;57.00
18575;DHT22;9417;16.484;102.872;2023-05-02T10:59:27;34.20;58.20
18575;DHT22;9417;16.484;102.872;2023-05-02T11:01:37;34.10;57.30
18575;DHT22;9417;16.484;102.872;2023-05-02T11:03:56;34.00;55.90
18575;DHT22;9417;16.484;102.872;2023-05-02T11:06:06;34.00;55.00
18575;DHT22;9417;16.484;102.872;2023-05-02T11:08:33;34.00;55.50
18575;DHT22;9417;16.484;102.872;2023-05-02T11:10:40;34.00;59.20
18575;DHT22;9417;16.484;102.872;2023-05-02T11:12:47;33.80;58.30
18575;DHT22;9417;16.484;102.872;2023-05-02T11:14:55;33.70;59.80
18575;DHT22;9417;16.484;102.872;2023-05-02T11:17:10;33.60;60.20
18575;DHT22;9417;16.484;102.872;2023-05-02T11:19:17;33.50;59.80
18575;DHT22;9417;16.484;102.872;2023-05-02T11:21:26;33.40;60.00
18575;DHT22;9417;16.484;102.872;2023-05-02T11:23:38;33.30;60.90
18575;DHT22;9417;16.484;102.872;2023-05-02T11:25:47;33.20;61.90
18575;DHT22;9417;16.484;102.872;2023-05-02T11:27:55;33.20;62.30
18575;DHT22;9417;16.484;102.872;2023-05-02T11:30:07;33.10;62.20
18575;DHT22;9417;16.484;102.872;2023-05-02T11:32:16;33.10;62.00
18575;DHT22;9417;16.484;102.872;2023-05-02T11:34:24;33.10;61.50
18575;DHT22;9417;16.484;102.872;2023-05-02T11:36:32;33.00;62.40
18575;DHT22;9417;16.484;102.872;2023-05-02T11:38:41;33.00;63.40
18575;DHT22;9417;16.484;102.872;2023-05-02T11:40:56;32.80;63.60
18575;DHT22;9417;16.484;102.872;2023-05-02T11:43:13;32.80;64.30
18575;DHT22;9417;16.484;102.872;2023-05-02T11:45:21;32.70;65.80
18575;DHT22;9417;16.484;102.872;2023-05-02T11:47:31;32.60;65.50
18575;DHT22;9417;16.484;102.872;2023-05-02T11:49:38;32.60;65.30
18575;DHT22;9417;16.484;102.872;2023-05-02T11:51:45;32.50;64.80
18575;DHT22;9417;16.484;102.872;2023-05-02T11:53:54;32.40;65.20
18575;DHT22;9417;16.484;102.872;2023-05-02T11:56:02;32.40;66.30
18575;DHT22;9417;16.484;102.872;2023-05-02T11:58:13;32.40;66.60
18575;DHT22;9417;16.484;102.872;2023-05-02T12:00:26;32.30;65.60
18575;DHT22;9417;16.484;102.872;2023-05-02T12:02:37;32.40;64.60
18575;DHT22;9417;16.484;102.872;2023-05-02T12:04:45;32.40;66.00
18575;DHT22;9417;16.484;102.872;2023-05-02T12:06:56;32.30;67.00
18575;DHT22;9417;16.484;102.872;2023-05-02T12:09:08;32.20;66.80
18575;DHT22;9417;16.484;102.872;2023-05-02T12:11:16;32.10;66.30
18575;DHT22;9417;16.484;102.872;2023-05-02T12:13:24;32.10;66.70
18575;DHT22;9417;16.484;102.872;2023-05-02T12:15:31;32.00;66.90
18575;DHT22;9417;16.484;102.872;2023-05-02T12:17:40;32.00;67.00
18575;DHT22;9417;16.484;102.872;2023-05-02T12:19:48;31.90;67.60
18575;DHT22;9417;16.484;102.872;2023-05-02T12:21:56;31.90;68.60
18575;DHT22;9417;16.484;102.872;2023-05-02T12:24:04;31.90;69.70
18575;DHT22;9417;16.484;102.872;2023-05-02T12:26:19;31.80;69.40
18575;DHT22;9417;16.484;102.872;2023-05-02T12:28:28;31.70;69.10
18575;DHT22;9417;16.484;102.872;2023-05-02T12:30:39;31.70;69.00
18575;DHT22;9417;16.484;102.872;2023-05-02T12:32:45;31.60;69.40
18575;DHT22;9417;16.484;102.872;2023-05-02T12:35:02;31.60;69.90
18575;DHT22;9417;16.484;102.872;2023-05-02T12:37:09;31.50;70.40
18575;DHT22;9417;16.484;102.872;2023-05-02T12:39:16;31.50;70.80
18575;DHT22;9417;16.484;102.872;2023-05-02T12:41:34;31.40;70.70
18575;DHT22;9417;16.484;102.872;2023-05-02T12:43:46;31.40;70.60
18575;DHT22;9417;16.484;102.872;2023-05-02T12:46:11;31.30;70.30
18575;DHT22;9417;16.484;102.872;2023-05-02T12:48:23;31.30;71.80
18575;DHT22;9417;16.484;102.872;2023-05-02T12:50:37;31.30;71.20
18575;DHT22;9417;16.484;102.872;2023-05-02T12:52:47;31.40;71.00
18575;DHT22;9417;16.484;102.872;2023-05-02T12:55:15;31.40;69.60
18575;DHT22;9417;16.484;102.872;2023-05-02T12:57:26;31.40;67.40
18575;DHT22;9417;16.484;102.872;2023-05-02T12:59:34;31.40;68.90
18575;DHT22;9417;16.484;102.872;2023-05-02T13:01:41;31.40;70.50
18575;DHT22;9417;16.484;102.872;2023-05-02T13:03:50;31.30;70.70
18575;DHT22;9417;16.484;102.872;2023-05-02T13:05:58;31.20;70.50
18575;DHT22;9417;16.484;102.872;2023-05-02T13:08:05;31.20;70.00
18575;DHT22;9417;16.484;102.872;2023-05-02T13:10:13;31.10;70.20
18575;DHT22;9417;16.484;102.872;2023-05-02T13:12:22;31.00;70.80
18575;DHT22;9417;16.484;102.872;2023-05-02T13:14:32;31.00;71.20
18575;DHT22;9417;16.484;102.872;2023-05-02T13:16:39;30.90;71.70
18575;DHT22;9417;16.484;102.872;2023-05-02T13:18:46;30.90;71.60
18575;DHT22;9417;16.484;102.872;2023-05-02T13:20:54;30.90;71.70
18575;DHT22;9417;16.484;102.872;2023-05-02T13:23:01;30.90;71.80
18575;DHT22;9417;16.484;102.872;2023-05-02T13:25:13;30.90;71.30
18575;DHT22;9417;16.484;102.872;2023-05-02T13:27:22;30.90;71.00